Time;durP1;ratioP1;P1;durP2;ratioP2;P2;SDS_P1;SDS_P2;PMS_P1;PMS_P2;Temp;Humidity;BMP_temperature;BMP_pressure;BME280_temperature;BME280_humidity;BME280_pressure;Samples;Min_cycle;Max_cycle;Signal;HPM_P1;HPM_P2
2022/12/17 13:06:49;;;;;;;25.63;12.18;;;1.00;55.60;;;;;;5026466;28;20056;-88
2022/12/17 13:09:22;;;;;;;23.95;10.98;;;1.10;55.60;;;;;;5017380;28;20057;-88
2022/12/17 13:11:53;;;;;;;23.20;10.93;;;1.10;55.60;;;;;;5021413;28;20064;-88
2022/12/17 13:14:24;;;;;;;26.77;12.60;;;1.10;55.60;;;;;;5017773;28;20061;-88
2022/12/17 13:16:55;;;;;;;27.33;12.02;;;1.10;55.60;;;;;;5028609;28;20056;-90
2022/12/17 13:19:36;;;;;;;24.48;12.20;;;1.10;55.50;;;;;;5024651;28;20056;-90
2022/12/17 13:22:30;;;;;;;25.85;12.18;;;1.10;55.50;;;;;;5023952;28;20053;-88
2022/12/17 13:25:15;;;;;;;36.33;16.05;;;1.10;55.40;;;;;;5020569;28;20057;-89
2022/12/17 13:27:43;;;;;;;25.00;12.45;;;1.10;55.30;;;;;;5018618;28;20060;-90
2022/12/17 13:30:32;;;;;;;24.10;12.63;;;1.20;55.30;;;;;;5022431;28;20060;-89
2022/12/17 13:33:17;;;;;;;21.17;11.02;;;1.10;55.20;;;;;;5023545;28;20060;-88
2022/12/17 13:35:55;;;;;;;24.13;11.15;;;1.20;55.30;;;;;;5021409;28;20737;-88
2022/12/17 13:38:33;;;;;;;26.13;11.85;;;1.20;55.30;;;;;;5016444;28;20053;-88
2022/12/17 13:41:07;;;;;;;23.30;12.02;;;1.20;55.30;;;;;;5021346;28;20160;-90
2022/12/17 13:43:39;;;;;;;;;;;1.20;55.20;;;;;;5023688;28;20064;-90
2022/12/17 13:46:06;;;;;;;23.90;11.43;;;1.30;55.20;;;;;;5024100;28;19939;-89
2022/12/17 13:48:34;;;;;;;21.10;10.90;;;1.30;55.20;;;;;;5023535;28;20045;-88
2022/12/17 13:51:04;;;;;;;28.92;13.98;;;1.20;55.10;;;;;;5020408;28;20061;-89
2022/12/17 13:53:33;;;;;;;27.15;14.30;;;1.30;55.10;;;;;;5020704;28;20061;-89
2022/12/17 13:56:01;;;;;;;26.60;13.38;;;1.20;54.90;;;;;;5022580;28;20448;-89
2022/12/17 13:58:31;;;;;;;24.20;12.68;;;1.20;54.90;;;;;;5020828;28;20053;-89
2022/12/17 14:01:06;;;;;;;24.88;13.60;;;1.20;54.90;;;;;;5022581;28;20060;-89
2022/12/17 14:03:34;;;;;;;24.48;11.45;;;1.20;54.90;;;;;;5023462;28;20049;-89
2022/12/17 14:06:03;;;;;;;25.75;11.70;;;1.20;55.00;;;;;;5020211;28;20064;-89
2022/12/17 14:08:33;;;;;;;20.35;10.80;;;1.20;55.00;;;;;;5018596;28;20429;-89
2022/12/17 14:13:45;;;;;;;27.45;12.70;;;1.20;55.00;;;;;;5015465;28;20752;-92
2022/12/17 14:16:15;;;;;;;22.15;11.27;;;1.30;55.00;;;;;;5020862;28;20060;-88
2022/12/17 14:18:46;;;;;;;26.30;13.60;;;1.20;55.00;;;;;;5016782;28;20054;-91
2022/12/17 14:21:15;;;;;;;24.33;12.70;;;1.20;54.90;;;;;;5018879;28;20485;-90
2022/12/17 14:23:44;;;;;;;27.67;11.90;;;1.20;54.80;;;;;;5017106;28;20116;-90
2022/12/17 14:26:13;;;;;;;22.88;11.63;;;1.20;54.80;;;;;;5018491;28;20049;-90
2022/12/17 14:28:47;;;;;;;22.13;11.65;;;1.20;54.80;;;;;;5018224;28;20064;-87
2022/12/17 14:31:19;;;;;;;;;;;1.20;54.80;;;;;;5019203;28;20052;-88
2022/12/17 14:33:47;;;;;;;33.85;14.73;;;1.20;54.80;;;;;;5021658;28;19932;-88
2022/12/17 14:36:21;;;;;;;28.92;13.18;;;1.30;54.70;;;;;;5020599;28;20061;-88
2022/12/17 14:38:54;;;;;;;29.70;13.45;;;1.20;54.60;;;;;;5022055;28;20063;-89
2022/12/17 14:44:13;;;;;;;26.35;13.35;;;1.20;54.60;;;;;;5020503;28;20079;-89
2022/12/17 14:46:40;;;;;;;25.63;12.30;;;1.20;54.60;;;;;;5021213;28;20052;-89
2022/12/17 14:49:17;;;;;;;32.42;15.18;;;1.20;54.60;;;;;;5025285;28;20057;-88
2022/12/17 14:51:47;;;;;;;24.83;13.38;;;1.20;54.60;;;;;;5023445;28;20053;-89
2022/12/17 14:54:20;;;;;;;28.00;14.05;;;1.20;54.60;;;;;;5023887;28;20056;-89
2022/12/17 14:56:49;;;;;;;26.33;13.65;;;1.20;54.50;;;;;;5020895;28;20066;-89
2022/12/17 14:59:24;;;;;;;28.60;13.63;;;1.10;54.50;;;;;;5027467;28;20382;-89
2022/12/17 15:01:53;;;;;;;64.13;26.95;;;1.10;54.40;;;;;;5023292;28;20049;-89
2022/12/17 15:04:21;;;;;;;44.78;19.95;;;1.10;54.40;;;;;;5024263;28;20080;-89
2022/12/17 15:06:53;;;;;;;33.38;15.60;;;1.10;54.50;;;;;;5026413;28;20049;-89
2022/12/17 15:09:21;;;;;;;32.47;14.35;;;1.10;54.40;;;;;;5021057;28;20049;-90
2022/12/17 15:11:49;;;;;;;29.58;14.65;;;1.10;54.90;;;;;;5022275;28;20485;-90
2022/12/17 15:14:16;;;;;;;31.23;15.70;;;1.10;54.50;;;;;;5030170;28;20079;-89
2022/12/17 15:16:44;;;;;;;34.40;16.30;;;1.10;54.50;;;;;;5026931;28;20088;-90
2022/12/17 15:19:12;;;;;;;30.90;15.32;;;1.00;54.40;;;;;;5023302;28;20064;-89
2022/12/17 15:21:40;;;;;;;32.22;16.13;;;1.00;54.50;;;;;;5019270;28;20045;-89
2022/12/17 15:24:15;;;;;;;31.08;15.15;;;1.00;54.50;;;;;;5018188;28;20056;-89
2022/12/17 15:26:42;;;;;;;37.50;18.15;;;1.00;54.50;;;;;;5022129;28;20405;-90
2022/12/17 15:29:10;;;;;;;34.33;15.93;;;1.00;54.50;;;;;;5020761;28;20053;-89
2022/12/17 15:31:37;;;;;;;33.95;16.50;;;1.00;54.50;;;;;;5021059;28;20945;-90
2022/12/17 15:34:04;;;;;;;33.67;15.93;;;1.00;54.50;;;;;;5014589;28;20145;-88
2022/12/17 15:36:32;;;;;;;36.58;16.30;;;1.00;54.40;;;;;;5014146;28;20501;-89
2022/12/17 15:39:00;;;;;;;38.00;16.77;;;0.90;54.40;;;;;;5019217;28;20053;-89
2022/12/17 15:44:13;;;;;;;33.45;16.42;;;0.90;54.40;;;;;;5022387;28;20064;-88
2022/12/17 15:46:41;;;;;;;33.92;16.55;;;0.90;54.40;;;;;;5018661;28;20058;-89
2022/12/17 15:49:08;;;;;;;41.95;18.40;;;0.90;54.40;;;;;;5018683;28;20065;-89
2022/12/17 15:51:35;;;;;;;33.22;16.95;;;0.80;54.40;;;;;;5016684;28;20056;-88
2022/12/17 15:54:03;;;;;;;37.30;16.25;;;0.80;54.90;;;;;;5015351;28;20057;-88
2022/12/17 15:56:33;;;;;;;37.03;16.65;;;0.80;54.40;;;;;;5015990;28;20054;-89
2022/12/17 15:59:00;;;;;;;37.90;17.83;;;0.80;54.50;;;;;;5019340;28;20045;-88
2022/12/17 16:01:28;;;;;;;35.85;16.60;;;0.80;54.40;;;;;;5014798;28;20049;-88
2022/12/17 16:03:55;;;;;;;34.38;16.90;;;0.80;54.40;;;;;;5019924;28;20424;-89
2022/12/17 16:06:22;;;;;;;36.70;16.50;;;0.80;54.50;;;;;;5020543;28;20076;-88
2022/12/17 16:08:50;;;;;;;35.22;17.55;;;0.80;54.50;;;;;;5017871;28;20060;-89
2022/12/17 16:11:17;;;;;;;37.95;17.25;;;0.70;54.40;;;;;;5026114;28;20046;-88
2022/12/17 16:13:46;;;;;;;35.05;17.15;;;0.70;54.50;;;;;;5008875;28;20060;-89
2022/12/17 16:16:13;;;;;;;37.78;18.23;;;0.70;54.40;;;;;;5022310;28;20056;-89
2022/12/17 16:18:41;;;;;;;39.05;18.17;;;0.70;54.40;;;;;;5022327;28;20053;-89
2022/12/17 16:21:09;;;;;;;33.05;16.80;;;0.70;54.40;;;;;;5019011;28;20058;-90
2022/12/17 16:23:39;;;;;;;40.92;18.90;;;0.70;54.40;;;;;;5016163;28;20060;-92
2022/12/17 16:26:08;;;;;;;71.22;29.67;;;0.70;54.90;;;;;;5018129;28;20054;-90
2022/12/17 16:28:36;;;;;;;84.65;33.20;;;0.60;54.30;;;;;;5018613;28;20500;-88
2022/12/17 16:31:07;;;;;;;41.65;20.20;;;0.60;54.30;;;;;;5019055;28;20049;-88
2022/12/17 16:33:35;;;;;;;43.53;19.40;;;0.60;54.30;;;;;;5023085;28;20057;-89
2022/12/17 16:36:03;;;;;;;43.08;19.13;;;0.60;54.20;;;;;;5022051;28;20500;-89
2022/12/17 16:38:30;;;;;;;43.63;18.52;;;0.50;53.90;;;;;;5022424;28;20053;-90
2022/12/17 16:41:00;;;;;;;37.40;17.98;;;0.50;53.80;;;;;;5018338;28;20053;-87
2022/12/17 16:43:34;;;;;;;36.80;18.00;;;0.50;53.90;;;;;;5020706;28;20056;-92
2022/12/17 16:46:02;;;;;;;38.67;18.50;;;0.50;54.00;;;;;;5021725;28;20120;-90
2022/12/17 16:48:37;;;;;;;36.38;17.02;;;0.40;54.10;;;;;;5022036;28;20485;-90
2022/12/17 16:51:16;;;;;;;65.43;28.42;;;0.40;54.10;;;;;;5016336;28;20045;-90
2022/12/17 16:53:44;;;;;;;67.60;26.10;;;0.40;54.10;;;;;;5020670;28;20568;-90
2022/12/17 16:56:16;;;;;;;50.55;21.08;;;0.40;54.10;;;;;;5022716;28;20056;-89
2022/12/17 16:58:43;;;;;;;42.33;19.27;;;0.40;54.10;;;;;;5029358;28;20477;-90
2022/12/17 17:01:11;;;;;;;37.70;18.05;;;0.30;54.10;;;;;;5024164;28;20057;-92
2022/12/17 17:03:42;;;;;;;38.13;18.67;;;0.30;54.10;;;;;;5018255;28;20511;-88
2022/12/17 17:06:10;;;;;;;43.78;19.85;;;0.30;54.10;;;;;;5025314;28;20053;-90
2022/12/17 17:08:39;;;;;;;38.72;18.40;;;0.30;54.60;;;;;;5015661;28;20513;-88
2022/12/17 17:11:11;;;;;;;41.00;18.92;;;0.30;54.10;;;;;;5029371;28;20515;-90
2022/12/17 17:13:39;;;;;;;44.95;21.27;;;0.30;54.20;;;;;;5024024;28;20120;-87
2022/12/17 17:16:08;;;;;;;40.45;19.42;;;0.30;54.20;;;;;;5023400;28;20404;-88
2022/12/17 17:18:36;;;;;;;41.30;20.52;;;0.20;54.10;;;;;;5020615;28;20482;-88
2022/12/17 17:21:26;;;;;;;42.00;19.60;;;0.30;54.10;;;;;;5022988;28;20061;-87
2022/12/17 17:23:57;;;;;;;42.72;18.90;;;0.20;54.10;;;;;;5021310;28;20053;-87
2022/12/17 17:26:25;;;;;;;41.35;18.67;;;0.20;54.10;;;;;;5022946;28;20417;-88
2022/12/17 17:28:52;;;;;;;45.17;20.55;;;0.20;54.10;;;;;;5019957;28;20493;-87
2022/12/17 17:31:20;;;;;;;38.50;18.67;;;0.20;54.10;;;;;;5019312;28;20072;-87
2022/12/17 17:33:49;;;;;;;48.83;22.33;;;0.10;54.10;;;;;;5022939;28;20053;-89
2022/12/17 17:36:21;;;;;;;44.55;20.30;;;0.10;54.10;;;;;;5023036;28;20064;-89
2022/12/17 17:38:50;;;;;;;41.30;19.15;;;0.10;54.10;;;;;;5019448;28;20363;-89
2022/12/17 17:41:19;;;;;;;41.70;18.80;;;0.10;54.10;;;;;;5022650;28;20500;-88
2022/12/17 17:43:47;;;;;;;44.92;20.45;;;0.10;54.10;;;;;;5022565;28;20084;-87
2022/12/17 17:46:16;;;;;;;43.65;19.98;;;0.10;54.20;;;;;;5021530;28;20049;-87
2022/12/17 17:48:45;;;;;;;44.30;19.17;;;0.10;54.20;;;;;;5021715;28;20069;-88
2022/12/17 17:51:14;;;;;;;42.50;18.92;;;0.10;54.20;;;;;;5022348;28;20061;-87
2022/12/17 17:53:43;;;;;;;42.42;19.45;;;0.10;54.20;;;;;;5018818;28;20504;-87
2022/12/17 17:56:13;;;;;;;49.70;20.73;;;0.00;54.20;;;;;;5021267;28;20050;-89
2022/12/17 17:58:42;;;;;;;41.60;18.50;;;0.00;54.10;;;;;;5022101;28;20057;-89
2022/12/17 18:01:11;;;;;;;42.40;18.48;;;0.00;54.10;;;;;;5014980;28;20049;-90
2022/12/17 18:03:38;;;;;;;43.83;20.02;;;0.00;54.10;;;;;;5022734;28;20739;-88
2022/12/17 18:06:07;;;;;;;79.65;31.23;;;0.00;54.10;;;;;;5020092;28;20062;-90
2022/12/17 18:08:36;;;;;;;106.25;38.00;;;0.00;54.10;;;;;;5019686;28;20076;-89
2022/12/17 18:11:06;;;;;;;53.30;23.75;;;0.00;54.10;;;;;;5026698;28;20053;-90
2022/12/17 18:16:20;;;;;;;41.65;18.52;;;0.00;54.00;;;;;;5020796;28;20389;-89
2022/12/17 18:18:48;;;;;;;44.92;20.02;;;-0.10;53.90;;;;;;5021982;28;20516;-89
2022/12/17 18:21:18;;;;;;;41.70;19.17;;;-0.10;53.90;;;;;;5024075;28;20045;-89
2022/12/17 18:23:45;;;;;;;51.17;21.67;;;-0.10;53.90;;;;;;5021073;28;20053;-90
2022/12/17 18:26:17;;;;;;;46.00;20.17;;;-0.10;53.90;;;;;;5021070;28;20053;-89
2022/12/17 18:28:45;;;;;;;50.63;20.63;;;-0.20;53.70;;;;;;5021790;28;20068;-90
2022/12/17 18:31:14;;;;;;;43.50;19.80;;;-0.10;53.90;;;;;;5021935;28;20056;-89
2022/12/17 18:33:45;;;;;;;42.67;19.70;;;-0.20;53.90;;;;;;5018633;28;20045;-89
2022/12/17 18:36:15;;;;;;;47.75;22.52;;;-0.20;53.90;;;;;;5020271;28;20073;-90
2022/12/17 18:38:44;;;;;;;47.38;20.10;;;-0.20;54.00;;;;;;5026558;28;20053;-91
2022/12/17 18:44:01;;;;;;;44.10;20.17;;;-0.20;54.00;;;;;;5015820;28;20056;-90
2022/12/17 18:46:30;;;;;;;43.15;18.55;;;-0.20;54.00;;;;;;5015368;28;20073;-89
2022/12/17 18:48:58;;;;;;;38.90;17.63;;;-0.20;54.00;;;;;;5021247;28;20149;-89
2022/12/17 18:51:26;;;;;;;40.65;17.60;;;-0.20;54.10;;;;;;5019847;28;20092;-89
2022/12/17 18:53:59;;;;;;;33.67;16.58;;;-0.30;54.20;;;;;;5018664;28;20465;-89
2022/12/17 18:56:28;;;;;;;45.88;18.95;;;-0.30;54.10;;;;;;5019662;28;20071;-89
2022/12/17 18:58:56;;;;;;;41.55;18.13;;;-0.30;54.00;;;;;;5020163;28;20404;-89
2022/12/17 19:01:26;;;;;;;48.05;21.58;;;-0.30;54.00;;;;;;5017699;28;20497;-90
2022/12/17 19:03:54;;;;;;;50.85;23.23;;;-0.30;54.00;;;;;;5020489;28;20049;-90
2022/12/17 19:06:24;;;;;;;44.30;20.20;;;-0.30;53.90;;;;;;5019447;28;20060;-90
2022/12/17 19:08:51;;;;;;;45.70;19.77;;;-0.30;53.90;;;;;;5025316;28;20511;-90
2022/12/17 19:11:21;;;;;;;46.78;19.75;;;-0.30;53.90;;;;;;5018776;28;20060;-90
2022/12/17 19:13:51;;;;;;;40.47;17.80;;;-0.30;53.90;;;;;;5020297;28;20049;-89
2022/12/17 19:16:20;;;;;;;44.75;19.00;;;-0.30;53.90;;;;;;5026909;28;20057;-91
2022/12/17 19:18:51;;;;;;;41.83;18.58;;;-0.30;53.90;;;;;;5019916;28;20057;-89
2022/12/17 19:21:20;;;;;;;48.70;19.25;;;-0.30;53.80;;;;;;5017537;28;20049;-90
2022/12/17 19:23:48;;;;;;;40.97;18.75;;;-0.30;53.70;;;;;;5019170;28;20061;-89
2022/12/17 19:26:18;;;;;;;42.15;19.40;;;-0.40;53.60;;;;;;5019808;28;20057;-90
2022/12/17 19:28:47;;;;;;;44.55;19.08;;;-0.40;53.60;;;;;;5020723;28;20065;-89
2022/12/17 19:31:17;;;;;;;45.88;18.63;;;-0.40;53.60;;;;;;5019239;28;20061;-90
2022/12/17 19:33:45;;;;;;;42.30;19.20;;;-0.40;54.10;;;;;;5018308;28;20057;-90
2022/12/17 19:36:15;;;;;;;46.58;20.35;;;-0.40;53.60;;;;;;5020133;28;20057;-89
2022/12/17 19:38:42;;;;;;;43.92;18.92;;;-0.50;53.60;;;;;;5018868;28;20049;-89
2022/12/17 19:41:13;;;;;;;44.00;18.77;;;-0.50;53.50;;;;;;5019995;28;20886;-90
2022/12/17 19:43:42;;;;;;;47.55;19.73;;;-0.50;53.50;;;;;;5015707;28;20056;-89
2022/12/17 19:46:11;;;;;;;43.83;18.95;;;-0.50;53.50;;;;;;5021549;28;20045;-90
2022/12/17 19:48:41;;;;;;;41.15;18.23;;;-0.50;53.50;;;;;;5021976;28;20061;-90
2022/12/17 19:51:10;;;;;;;41.78;18.52;;;-0.50;53.50;;;;;;5025224;28;20493;-88
2022/12/17 19:53:39;;;;;;;42.97;19.15;;;-0.50;53.40;;;;;;5018514;28;20685;-88
2022/12/17 19:56:11;;;;;;;45.85;19.33;;;-0.60;53.50;;;;;;5023245;28;20065;-90
2022/12/17 19:58:40;;;;;;;43.60;18.88;;;-0.60;53.30;;;;;;5030961;28;20053;-90
2022/12/17 20:01:08;;;;;;;53.83;25.33;;;-0.60;53.30;;;;;;5024599;28;20057;-89
2022/12/17 20:03:36;;;;;;;47.10;20.60;;;-0.60;53.30;;;;;;5022968;28;20049;-89
2022/12/17 20:06:06;;;;;;;48.88;20.27;;;-0.60;53.30;;;;;;5017470;28;20050;-90
2022/12/17 20:08:34;;;;;;;38.58;18.10;;;-0.60;53.20;;;;;;5022882;28;20729;-89
2022/12/17 20:11:03;;;;;;;50.42;20.38;;;-0.60;53.30;;;;;;5021786;28;20053;-88
2022/12/17 20:13:30;;;;;;;39.70;18.40;;;-0.70;53.20;;;;;;5024696;28;20060;-89
2022/12/17 20:16:00;;;;;;;41.65;18.92;;;-0.70;53.30;;;;;;5029808;28;20385;-88
2022/12/17 20:18:28;;;;;;;37.55;17.65;;;-0.70;53.40;;;;;;5024071;28;20430;-89
2022/12/17 20:21:02;;;;;;;43.25;19.63;;;-0.70;53.40;;;;;;5018091;28;20068;-89
2022/12/17 20:23:31;;;;;;;43.88;19.35;;;-0.80;53.30;;;;;;5022104;28;20049;-88
2022/12/17 20:26:03;;;;;;;40.92;18.48;;;-0.80;53.30;;;;;;5023617;28;20053;-90
2022/12/17 20:28:30;;;;;;;46.00;20.75;;;-0.80;53.30;;;;;;5022970;28;20052;-89
2022/12/17 20:30:57;;;;;;;45.65;20.17;;;-0.80;53.30;;;;;;5021371;28;20064;-89
2022/12/17 20:33:25;;;;;;;37.30;16.13;;;-0.80;53.30;;;;;;5018614;28;20049;-89
2022/12/17 20:35:53;;;;;;;41.45;18.65;;;-0.80;53.20;;;;;;5022308;28;20054;-89
2022/12/17 20:38:20;;;;;;;43.78;17.73;;;-0.80;53.30;;;;;;5027513;28;20053;-90
2022/12/17 20:40:49;;;;;;;41.13;17.92;;;-0.80;53.30;;;;;;5021912;28;20060;-89
2022/12/17 20:43:17;;;;;;;40.67;17.25;;;-0.80;53.20;;;;;;5021939;28;20053;-88
2022/12/17 20:45:48;;;;;;;40.85;17.13;;;-0.80;53.20;;;;;;5022549;28;20069;-88
2022/12/17 20:48:15;;;;;;;41.95;17.50;;;-0.90;53.20;;;;;;5030185;28;20053;-89
2022/12/17 20:50:43;;;;;;;33.58;15.85;;;-0.90;53.20;;;;;;5020495;28;20060;-90
2022/12/17 20:53:11;;;;;;;41.78;18.20;;;-0.90;53.20;;;;;;5022011;28;20049;-88
2022/12/17 20:55:38;;;;;;;42.90;19.77;;;-0.90;53.20;;;;;;5025937;28;20512;-89
2022/12/17 20:58:06;;;;;;;42.63;20.35;;;-0.90;53.20;;;;;;5021247;28;20068;-90
2022/12/17 21:00:34;;;;;;;44.05;19.50;;;-0.90;53.20;;;;;;5027393;28;20440;-89
2022/12/17 21:03:02;;;;;;;43.75;21.30;;;-0.90;53.20;;;;;;5023315;28;20053;-90
2022/12/17 21:05:29;;;;;;;45.30;20.30;;;-1.00;53.20;;;;;;5017565;28;20066;-90
2022/12/17 21:07:56;;;;;;;41.40;18.90;;;-0.90;53.20;;;;;;5023783;28;20065;-90
2022/12/17 21:10:24;;;;;;;45.47;18.80;;;-1.00;53.10;;;;;;5019678;28;20046;-89
2022/12/17 21:15:37;;;;;;;40.30;17.92;;;-1.00;53.00;;;;;;5022732;28;20061;-89
2022/12/17 21:18:04;;;;;;;39.40;18.23;;;-1.00;53.00;;;;;;5028141;28;20049;-90
2022/12/17 21:20:32;;;;;;;43.75;18.23;;;-1.00;53.00;;;;;;5023672;28;20412;-89
2022/12/17 21:22:59;;;;;;;43.22;17.98;;;-1.00;53.00;;;;;;5021523;28;20057;-89
2022/12/17 21:25:26;;;;;;;40.47;17.38;;;-1.00;53.00;;;;;;5022264;28;20373;-90
2022/12/17 21:27:54;;;;;;;43.40;17.58;;;-1.00;53.00;;;;;;5022764;28;20053;-90
2022/12/17 21:30:21;;;;;;;38.20;17.50;;;-1.00;52.90;;;;;;5021104;28;20065;-89
2022/12/17 21:32:50;;;;;;;42.38;18.13;;;-1.10;52.90;;;;;;5022445;28;20404;-89
2022/12/17 21:35:17;;;;;;;42.85;18.88;;;-1.10;52.90;;;;;;5018106;28;20053;-89
2022/12/17 21:37:44;;;;;;;44.60;17.83;;;-1.10;52.80;;;;;;5022777;28;20552;-89
2022/12/17 21:40:12;;;;;;;103.53;38.80;;;-1.10;52.70;;;;;;5020479;28;20504;-89
2022/12/17 21:45:35;;;;;;;44.42;19.73;;;-1.10;52.60;;;;;;5007715;28;20413;-90
2022/12/17 21:48:05;;;;;;;45.38;19.15;;;-1.20;52.60;;;;;;5026840;28;20057;-90
2022/12/17 21:50:32;;;;;;;42.45;18.63;;;-1.20;52.60;;;;;;5018740;28;20053;-89
2022/12/17 21:53:00;;;;;;;45.10;18.63;;;-1.20;52.60;;;;;;5020980;28;20057;-89
2022/12/17 21:55:28;;;;;;;45.42;18.40;;;-1.20;52.60;;;;;;5021169;28;20056;-89
2022/12/17 21:57:55;;;;;;;43.40;18.33;;;-1.20;52.60;;;;;;5021792;28;20477;-89
2022/12/17 22:00:22;;;;;;;43.88;17.90;;;-1.30;52.50;;;;;;5019434;28;20416;-89
2022/12/17 22:02:49;;;;;;;39.05;17.13;;;-1.30;52.60;;;;;;5021723;28;20053;-89
2022/12/17 22:05:19;;;;;;;43.05;18.75;;;-1.30;52.80;;;;;;5020247;28;20060;-89
2022/12/17 22:07:47;;;;;;;48.28;19.10;;;-1.30;52.80;;;;;;5023054;28;20065;-89
2022/12/17 22:10:14;;;;;;;41.83;17.38;;;-1.40;52.80;;;;;;5020243;28;20050;-90
2022/12/17 22:15:26;;;;;;;37.80;16.58;;;-1.40;52.80;;;;;;5021807;28;20124;-89
2022/12/17 22:17:55;;;;;;;42.85;18.08;;;-1.40;52.90;;;;;;5014288;28;20068;-89
2022/12/17 22:20:23;;;;;;;43.63;15.70;;;-1.40;52.90;;;;;;5025649;28;20056;-89
2022/12/17 22:22:51;;;;;;;41.95;17.00;;;-1.40;52.90;;;;;;5021975;28;20057;-89
2022/12/17 22:25:18;;;;;;;40.40;16.15;;;-1.40;53.00;;;;;;5020258;28;20056;-90
2022/12/17 22:27:45;;;;;;;38.60;16.48;;;-1.40;53.10;;;;;;5020122;28;20497;-90
2022/12/17 22:33:05;;;;;;;35.95;15.93;;;-1.40;53.20;;;;;;5026697;28;20068;-91
2022/12/17 22:35:36;;;;;;;39.97;16.42;;;-1.40;53.20;;;;;;5018254;28;20077;-90
2022/12/17 22:38:05;;;;;;;37.17;15.70;;;-1.40;53.20;;;;;;5025886;28;20054;-88
2022/12/17 22:40:36;;;;;;;36.38;16.90;;;-1.40;53.20;;;;;;5026551;28;20045;-89
2022/12/17 22:45:49;;;;;;;41.70;16.25;;;-1.40;53.20;;;;;;5020635;28;20168;-90
2022/12/17 22:48:16;;;;;;;42.05;18.58;;;-1.40;53.20;;;;;;5020291;28;20062;-90
2022/12/17 22:50:45;;;;;;;41.63;16.95;;;-1.40;53.10;;;;;;5019107;28;20061;-89
2022/12/17 22:53:12;;;;;;;38.92;17.33;;;-1.40;53.20;;;;;;5014853;28;20068;-89
2022/12/17 22:55:39;;;;;;;40.10;16.15;;;-1.40;53.20;;;;;;5020427;28;20064;-89
2022/12/17 22:58:07;;;;;;;38.80;17.08;;;-1.40;53.20;;;;;;5020878;28;20061;-89
2022/12/17 23:00:35;;;;;;;39.53;16.85;;;-1.40;53.20;;;;;;5025801;28;20049;-88
2022/12/17 23:03:03;;;;;;;39.85;16.65;;;-1.40;53.20;;;;;;5019639;28;20049;-89
2022/12/17 23:05:31;;;;;;;37.25;15.68;;;-1.40;53.20;;;;;;5019334;28;20057;-90
2022/12/17 23:08:01;;;;;;;36.70;15.35;;;-1.40;53.20;;;;;;5019150;28;20088;-90
2022/12/17 23:10:29;;;;;;;41.08;16.35;;;-1.40;53.10;;;;;;5026220;28;20072;-89
2022/12/17 23:12:56;;;;;;;46.85;19.50;;;-1.40;53.10;;;;;;5017630;28;20413;-88
2022/12/17 23:15:27;;;;;;;39.63;16.58;;;-1.40;53.10;;;;;;5020154;28;20072;-90
2022/12/17 23:17:56;;;;;;;42.97;17.92;;;-1.40;53.10;;;;;;5023061;28;20045;-89
2022/12/17 23:20:24;;;;;;;40.85;16.05;;;-1.40;53.10;;;;;;5019406;28;20060;-89
2022/12/17 23:22:52;;;;;;;43.60;18.20;;;-1.40;53.10;;;;;;5018868;28;20072;-90
2022/12/17 23:25:21;;;;;;;40.45;16.25;;;-1.40;53.10;;;;;;5024638;28;20056;-89
2022/12/17 23:27:49;;;;;;;38.13;16.52;;;-1.40;53.00;;;;;;5020878;28;20080;-89
2022/12/17 23:30:17;;;;;;;38.05;16.98;;;-1.40;53.00;;;;;;5026348;28;20061;-89
2022/12/17 23:32:44;;;;;;;41.55;17.83;;;-1.40;52.90;;;;;;5024160;28;20060;-89
2022/12/17 23:35:13;;;;;;;39.70;16.27;;;-1.40;52.90;;;;;;5018966;28;20053;-89
2022/12/17 23:37:41;;;;;;;39.08;17.30;;;-1.40;52.90;;;;;;5019488;28;20045;-90
2022/12/17 23:40:10;;;;;;;43.42;17.48;;;-1.40;53.00;;;;;;5024956;28;20357;-89
2022/12/17 23:42:39;;;;;;;41.47;17.40;;;-1.40;53.00;;;;;;5020524;28;20045;-89
2022/12/17 23:45:10;;;;;;;35.60;16.08;;;-1.40;53.10;;;;;;5016099;28;20447;-89
2022/12/17 23:47:37;;;;;;;43.72;16.13;;;-1.50;53.00;;;;;;5020639;28;20053;-89
2022/12/17 23:50:06;;;;;;;42.95;18.13;;;-1.40;53.10;;;;;;5017824;28;20060;-89
2022/12/17 23:52:34;;;;;;;41.40;17.23;;;-1.40;53.10;;;;;;5019048;28;20045;-89
2022/12/17 23:55:01;;;;;;;43.17;18.13;;;-1.40;53.00;;;;;;5022778;28;20528;-90
2022/12/17 23:57:29;;;;;;;39.00;16.73;;;-1.50;52.90;;;;;;5019327;28;20548;-90
2022/12/17 23:59:58;;;;;;;45.03;18.20;;;-1.50;52.90;;;;;;5019282;28;20053;-90
